TimeCDT,TemperatureF,Dew PointF,Humidity,Sea Level PressureIn,VisibilityMPH,Wind Direction,Wind SpeedMPH,Gust SpeedMPH,PrecipitationIn,Events,Conditions,WindDirDegrees,DateUTC
12:53 AM,77.0,75.0,94,29.88,10.0,SE,6.9,-,N/A,,Partly Cloudy,130,2013-10-04 05:53:00
1:53 AM,78.1,75.0,90,29.88,10.0,SE,5.8,-,N/A,,Clear,130,2013-10-04 06:53:00
2:53 AM,78.1,75.0,90,29.87,10.0,SE,3.5,-,N/A,,Partly Cloudy,140,2013-10-04 07:53:00
3:53 AM,77.0,75.0,94,29.86,10.0,ESE,3.5,-,N/A,,Clear,120,2013-10-04 08:53:00
4:53 AM,77.0,75.0,94,29.86,10.0,Calm,Calm,-,N/A,,Partly Cloudy,0,2013-10-04 09:53:00
5:26 AM,78.8,75.2,89,29.86,10.0,SSE,6.9,-,0.00,Rain,Light Rain,150,2013-10-04 10:26:00
5:33 AM,78.8,75.2,89,29.87,10.0,SE,5.8,-,0.00,Rain,Light Rain,140,2013-10-04 10:33:00
5:53 AM,78.1,75.9,93,29.86,10.0,SE,4.6,-,0.00,,Scattered Clouds,140,2013-10-04 10:53:00
6:53 AM,77.0,75.9,96,29.88,10.0,SE,3.5,-,N/A,,Partly Cloudy,140,2013-10-04 11:53:00
7:53 AM,78.1,75.9,93,29.88,10.0,SSE,3.5,-,N/A,,Mostly Cloudy,160,2013-10-04 12:53:00
8:53 AM,81.0,75.9,85,29.89,10.0,SSE,8.1,-,N/A,,Clear,150,2013-10-04 13:53:00
9:53 AM,84.9,75.9,74,29.90,10.0,SE,12.7,-,N/A,,Scattered Clouds,140,2013-10-04 14:53:00
10:08 AM,86.0,75.2,70,29.90,10.0,SSE,12.7,-,N/A,,Mostly Cloudy,160,2013-10-04 15:08:00
10:33 AM,84.2,73.4,70,29.90,10.0,SSE,8.1,-,N/A,,Partly Cloudy,160,2013-10-04 15:33:00
10:53 AM,87.1,73.9,65,29.90,10.0,South,15.0,-,N/A,,Partly Cloudy,180,2013-10-04 15:53:00
11:53 AM,87.1,73.9,65,29.90,10.0,SSE,12.7,-,N/A,,Mostly Cloudy,160,2013-10-04 16:53:00
12:53 PM,90.0,73.0,57,29.88,10.0,South,12.7,-,N/A,,Mostly Cloudy,170,2013-10-04 17:53:00
1:53 PM,90.0,73.9,59,29.86,10.0,SE,17.3,-,N/A,,Scattered Clouds,140,2013-10-04 18:53:00
2:53 PM,91.0,73.0,55,29.85,10.0,South,10.4,23.0,N/A,,Partly Cloudy,170,2013-10-04 19:53:00
3:53 PM,89.1,73.0,59,29.84,10.0,ESE,13.8,-,N/A,,Scattered Clouds,120,2013-10-04 20:53:00
4:53 PM,88.0,73.0,61,29.84,10.0,SSE,12.7,-,N/A,,Partly Cloudy,150,2013-10-04 21:53:00
5:53 PM,87.1,73.0,63,29.84,10.0,SE,11.5,-,N/A,,Partly Cloudy,140,2013-10-04 22:53:00
6:53 PM,82.9,72.0,69,29.85,10.0,SE,8.1,-,N/A,,Clear,140,2013-10-04 23:53:00
7:53 PM,80.1,73.9,81,29.86,10.0,SE,6.9,-,N/A,,Clear,130,2013-10-05 00:53:00
8:53 PM,79.0,73.9,84,29.88,10.0,ESE,4.6,-,N/A,,Clear,120,2013-10-05 01:53:00
9:53 PM,78.1,73.9,87,29.89,10.0,ESE,3.5,-,N/A,,Clear,120,2013-10-05 02:53:00
10:53 PM,75.9,73.0,91,29.90,10.0,Calm,Calm,-,N/A,,Clear,0,2013-10-05 03:53:00
11:53 PM,75.9,73.9,94,29.90,10.0,SSE,3.5,-,N/A,,Clear,150,2013-10-05 04:53:00